Time;durP1;ratioP1;P1;durP2;ratioP2;P2;SDS_P1;SDS_P2;PMS_P1;PMS_P2;Temp;Humidity;BMP_temperature;BMP_pressure;BME280_temperature;BME280_humidity;BME280_pressure;Samples;Min_cycle;Max_cycle;Signal;HPM_P1;HPM_P2
2022/03/27 00:02:08;;;;;;;16.73;13.50;;;11.10;99.90;;;;;;5032953;28;20281;-69
2022/03/27 00:04:34;;;;;;;17.57;13.27;;;11.10;99.90;;;;;;5031950;28;20199;-69
2022/03/27 00:07:00;;;;;;;19.17;14.40;;;11.10;99.90;;;;;;5032628;28;20297;-67
2022/03/27 00:09:25;;;;;;;18.43;14.13;;;11.10;99.90;;;;;;5033169;28;20167;-68
2022/03/27 00:11:51;;;;;;;18.60;14.40;;;11.10;99.90;;;;;;5033044;28;20222;-69
2022/03/27 00:14:16;;;;;;;17.20;14.93;;;11.00;99.90;;;;;;5031891;28;20659;-67
2022/03/27 00:16:42;;;;;;;20.53;14.63;;;10.90;99.90;;;;;;5033174;28;20190;-68
2022/03/27 00:19:07;;;;;;;19.00;14.03;;;10.80;99.90;;;;;;5032620;28;20185;-68
2022/03/27 00:21:33;;;;;;;16.23;13.33;;;10.80;99.90;;;;;;5032558;28;20206;-68
2022/03/27 00:23:58;;;;;;;21.33;14.40;;;10.70;99.90;;;;;;5032467;28;20163;-68
2022/03/27 00:26:24;;;;;;;21.83;14.00;;;10.70;99.90;;;;;;5032420;28;20206;-69
2022/03/27 00:28:51;;;;;;;15.57;12.37;;;10.70;99.90;;;;;;5032594;28;20182;-67
2022/03/27 00:31:17;;;;;;;19.37;14.53;;;10.80;99.90;;;;;;5032668;28;20214;-67
2022/03/27 00:33:44;;;;;;;15.67;13.00;;;10.80;99.90;;;;;;5032742;28;20790;-67
2022/03/27 00:36:13;;;;;;;18.47;14.60;;;10.80;99.90;;;;;;5032132;28;21129;-68
2022/03/27 00:38:45;;;;;;;17.33;13.93;;;10.80;99.90;;;;;;5032569;28;20421;-67
2022/03/27 00:41:12;;;;;;;15.20;12.70;;;10.90;99.90;;;;;;5032425;28;20461;-68
2022/03/27 00:43:39;;;;;;;16.50;13.13;;;10.90;99.90;;;;;;5032434;28;20440;-68
2022/03/27 00:46:06;;;;;;;19.33;12.70;;;10.90;99.90;;;;;;5032250;28;20858;-68
2022/03/27 00:48:34;;;;;;;18.40;13.60;;;10.80;99.90;;;;;;5032255;28;20449;-68
2022/03/27 00:50:59;;;;;;;17.30;13.47;;;10.70;99.90;;;;;;5032000;28;20417;-68
2022/03/27 00:53:25;;;;;;;14.90;12.57;;;10.70;99.90;;;;;;5032358;28;20483;-68
2022/03/27 00:55:51;;;;;;;15.97;12.83;;;10.60;99.90;;;;;;5032313;28;20178;-69
2022/03/27 00:58:17;;;;;;;19.00;13.40;;;10.60;99.90;;;;;;5030886;28;20187;-68
2022/03/27 01:01:15;;;;;;;20.43;13.00;;;10.60;99.90;;;;;;5032133;28;20454;-68
2022/03/27 01:03:40;;;;;;;16.63;12.60;;;10.50;99.90;;;;;;5029003;28;20426;-70
2022/03/27 01:06:38;;;;;;;12.37;10.67;;;10.40;99.90;;;;;;5031870;28;20445;-68
2022/03/27 01:11:51;;;;;;;15.17;12.17;;;10.40;99.90;;;;;;5032338;28;20428;-68
2022/03/27 01:14:46;;;;;;;17.93;13.67;;;10.40;99.90;;;;;;5032030;28;20405;-68
2022/03/27 01:17:16;;;;;;;20.13;14.27;;;10.40;99.90;;;;;;5022238;28;20451;-68
2022/03/27 01:19:50;;;;;;;18.20;13.10;;;10.50;99.90;;;;;;5035517;28;20455;-68
2022/03/27 01:22:17;;;;;;;16.80;12.53;;;10.50;99.90;;;;;;5036336;28;20452;-68
2022/03/27 01:24:46;;;;;;;13.53;10.60;;;10.40;99.90;;;;;;5036100;28;20749;-68
2022/03/27 01:27:12;;;;;;;17.70;12.83;;;10.40;99.90;;;;;;5035965;28;20797;-69
2022/03/27 01:29:38;;;;;;;18.17;12.83;;;10.30;99.90;;;;;;5034875;28;20417;-68
2022/03/27 01:32:06;;;;;;;14.33;11.40;;;10.40;99.90;;;;;;5034643;28;20202;-68
2022/03/27 01:34:32;;;;;;;14.33;11.13;;;10.30;99.90;;;;;;5036014;28;20171;-69
2022/03/27 01:37:08;;;;;;;13.80;11.67;;;10.20;99.90;;;;;;5034613;28;20544;-68
2022/03/27 01:39:34;;;;;;;16.73;12.43;;;10.20;99.90;;;;;;5035801;28;21023;-69
2022/03/27 01:42:00;;;;;;;20.50;15.90;;;10.20;99.90;;;;;;5035238;28;20804;-68
2022/03/27 01:44:26;;;;;;;18.07;14.87;;;10.30;99.90;;;;;;5035115;28;20416;-69
2022/03/27 01:46:52;;;;;;;18.03;13.67;;;10.30;99.90;;;;;;5036043;28;20198;-68
2022/03/27 01:49:19;;;;;;;18.47;14.00;;;10.40;99.90;;;;;;5034219;28;20178;-69
2022/03/27 01:51:46;;;;;;;15.53;12.87;;;10.30;99.90;;;;;;5035252;28;20471;-69
2022/03/27 01:54:12;;;;;;;16.50;13.90;;;10.20;99.90;;;;;;5035808;28;20405;-68
2022/03/27 01:56:38;;;;;;;18.63;14.03;;;10.20;99.90;;;;;;5034901;28;20898;-68
2022/03/27 01:59:05;;;;;;;17.47;12.50;;;10.30;99.90;;;;;;5035282;28;20504;-67
2022/03/27 02:01:31;;;;;;;17.23;13.17;;;10.20;99.90;;;;;;5035295;28;21031;-68
2022/03/27 02:03:57;;;;;;;18.00;13.57;;;10.30;99.90;;;;;;5035441;28;20942;-69
2022/03/27 02:06:23;;;;;;;14.20;12.00;;;10.30;99.90;;;;;;5035133;28;20441;-68
2022/03/27 02:08:50;;;;;;;15.27;12.50;;;10.30;99.90;;;;;;5034897;28;20221;-68
2022/03/27 02:11:15;;;;;;;17.07;13.67;;;10.40;99.90;;;;;;5034795;28;20406;-68
2022/03/27 02:13:41;;;;;;;16.57;13.53;;;10.40;99.90;;;;;;5034582;28;20474;-69
2022/03/27 02:16:07;;;;;;;15.93;12.67;;;10.40;99.90;;;;;;5034756;28;20190;-68
2022/03/27 02:18:33;;;;;;;16.60;13.53;;;10.30;99.90;;;;;;5034578;28;20409;-68
2022/03/27 02:21:03;;;;;;;17.40;14.00;;;10.20;99.90;;;;;;5034376;28;20444;-68
2022/03/27 02:23:29;;;;;;;20.00;12.97;;;10.20;99.90;;;;;;5034400;28;20562;-69
2022/03/27 02:25:55;;;;;;;18.00;14.27;;;10.20;99.90;;;;;;5034355;28;20424;-68
2022/03/27 02:28:21;;;;;;;16.90;13.63;;;10.20;99.90;;;;;;5033932;28;20410;-68
2022/03/27 02:30:47;;;;;;;15.90;12.80;;;10.20;99.90;;;;;;5033457;28;20483;-68
2022/03/27 02:33:13;;;;;;;17.87;13.03;;;10.10;99.90;;;;;;5034240;28;20431;-66
2022/03/27 02:35:39;;;;;;;14.70;12.90;;;10.20;99.90;;;;;;5034289;28;20406;-68
2022/03/27 02:38:05;;;;;;;15.77;12.30;;;10.20;99.90;;;;;;5034093;28;20206;-69
2022/03/27 02:40:32;;;;;;;16.20;12.53;;;10.10;99.90;;;;;;5033854;28;20217;-69
2022/03/27 02:43:01;;;;;;;16.03;12.13;;;10.00;99.90;;;;;;5034474;28;20480;-68
2022/03/27 02:45:27;;;;;;;16.53;13.43;;;9.90;99.90;;;;;;5034382;28;20429;-69
2022/03/27 02:47:54;;;;;;;15.10;12.63;;;9.90;99.90;;;;;;5033868;28;20491;-69
2022/03/27 02:50:20;;;;;;;14.90;11.97;;;9.80;99.90;;;;;;5033683;28;20406;-68
2022/03/27 02:52:46;;;;;;;14.83;12.07;;;9.70;99.90;;;;;;5034056;28;20413;-69
2022/03/27 02:55:12;;;;;;;16.50;12.67;;;9.70;99.90;;;;;;5034033;28;20924;-67
2022/03/27 02:57:38;;;;;;;16.23;13.27;;;9.60;99.90;;;;;;5034015;28;20190;-68
2022/03/27 03:00:06;;;;;;;17.37;13.37;;;9.70;99.90;;;;;;5033057;28;20453;-69
2022/03/27 03:02:33;;;;;;;18.57;12.70;;;9.70;99.90;;;;;;5033965;28;20449;-68
2022/03/27 03:04:58;;;;;;;16.53;13.60;;;9.80;99.90;;;;;;5033971;28;20769;-68
2022/03/27 03:07:24;;;;;;;16.53;12.00;;;9.80;99.90;;;;;;5033717;28;20441;-68
2022/03/27 03:09:50;;;;;;;17.80;12.07;;;9.80;99.90;;;;;;5033911;28;20183;-68
2022/03/27 03:12:16;;;;;;;17.03;12.40;;;9.80;99.90;;;;;;5034466;28;20421;-68
2022/03/27 03:14:42;;;;;;;14.97;11.80;;;9.80;99.90;;;;;;5034957;28;20414;-69
2022/03/27 03:17:08;;;;;;;14.67;12.40;;;9.90;99.90;;;;;;5034938;28;20202;-69
2022/03/27 03:19:34;;;;;;;15.50;12.60;;;9.90;99.90;;;;;;5037063;28;20179;-69
2022/03/27 03:21:59;;;;;;;15.80;12.60;;;9.80;99.90;;;;;;5041178;28;20519;-69
2022/03/27 03:24:26;;;;;;;16.90;12.43;;;9.80;99.90;;;;;;5037995;28;20315;-69
2022/03/27 03:26:53;;;;;;;14.73;12.00;;;9.90;99.90;;;;;;5037746;28;20210;-69
2022/03/27 03:29:19;;;;;;;13.87;11.33;;;9.80;99.90;;;;;;5037112;28;20440;-69
2022/03/27 03:31:45;;;;;;;15.47;11.87;;;9.80;99.90;;;;;;5038419;28;20429;-68
2022/03/27 03:34:10;;;;;;;15.63;12.23;;;9.80;99.90;;;;;;5042247;28;20785;-69
2022/03/27 03:36:36;;;;;;;13.70;12.17;;;9.80;99.90;;;;;;5033211;28;20190;-69
2022/03/27 03:39:02;;;;;;;15.47;11.70;;;9.90;99.90;;;;;;5033158;28;20186;-68
2022/03/27 03:41:27;;;;;;;14.70;12.10;;;9.80;99.90;;;;;;5032824;28;20321;-69
2022/03/27 03:43:53;;;;;;;15.90;12.37;;;9.90;99.90;;;;;;5033181;28;20472;-68
2022/03/27 03:46:18;;;;;;;14.47;11.80;;;9.90;99.90;;;;;;5032171;28;20273;-69
2022/03/27 03:48:44;;;;;;;18.20;13.27;;;10.00;99.90;;;;;;5033019;28;20214;-69
2022/03/27 03:51:09;;;;;;;14.07;11.10;;;10.00;99.90;;;;;;5032612;28;20270;-68
2022/03/27 03:53:35;;;;;;;16.00;12.83;;;10.00;99.90;;;;;;5032967;28;20186;-69
2022/03/27 03:56:01;;;;;;;13.60;12.10;;;10.10;99.90;;;;;;5032610;28;20206;-69
2022/03/27 03:58:26;;;;;;;13.17;11.47;;;10.20;99.90;;;;;;5032909;28;20246;-69
2022/03/27 04:00:52;;;;;;;15.20;12.77;;;10.20;99.90;;;;;;5030947;28;20265;-68
2022/03/27 04:03:17;;;;;;;16.33;12.63;;;10.30;99.90;;;;;;5032543;28;20733;-69
2022/03/27 04:05:43;;;;;;;16.30;12.97;;;10.30;99.90;;;;;;5032552;28;20582;-69
2022/03/27 04:08:09;;;;;;;14.53;12.00;;;10.30;99.90;;;;;;5032648;28;20644;-68
2022/03/27 04:10:34;;;;;;;15.83;12.43;;;10.40;99.90;;;;;;5032630;28;20167;-68
2022/03/27 04:13:00;;;;;;;17.67;13.27;;;10.40;99.90;;;;;;5032408;28;20245;-69
2022/03/27 04:15:25;;;;;;;15.70;13.53;;;10.40;99.90;;;;;;5032378;28;20175;-69
2022/03/27 04:17:51;;;;;;;19.73;14.17;;;10.40;99.90;;;;;;5032621;28;20198;-68
2022/03/27 04:20:17;;;;;;;21.53;15.70;;;10.40;99.90;;;;;;5032218;28;20171;-68
2022/03/27 04:22:44;;;;;;;18.23;15.63;;;10.40;99.90;;;;;;5032461;28;20674;-69
2022/03/27 04:25:11;;;;;;;19.97;15.10;;;10.50;99.90;;;;;;5030802;28;20437;-68
2022/03/27 04:27:37;;;;;;;20.77;15.83;;;10.60;99.90;;;;;;5032130;28;20817;-68
2022/03/27 04:30:04;;;;;;;22.03;15.90;;;10.60;99.90;;;;;;5031835;28;20402;-67
2022/03/27 04:32:30;;;;;;;20.50;15.70;;;10.60;99.90;;;;;;5032526;28;20774;-69
2022/03/27 04:34:56;;;;;;;25.50;16.00;;;10.60;99.90;;;;;;5031785;28;20425;-68
2022/03/27 04:37:21;;;;;;;23.93;16.37;;;10.70;99.90;;;;;;5031763;28;20198;-68
2022/03/27 04:39:47;;;;;;;26.97;17.13;;;10.70;99.90;;;;;;5031871;28;20417;-69
2022/03/27 04:42:13;;;;;;;19.37;16.00;;;10.70;99.90;;;;;;5032090;28;20586;-69
2022/03/27 04:44:38;;;;;;;21.83;16.60;;;10.70;99.90;;;;;;5032124;28;20167;-68
2022/03/27 04:47:05;;;;;;;24.17;17.07;;;10.80;99.90;;;;;;5031610;28;20182;-68
2022/03/27 04:49:31;;;;;;;21.20;16.97;;;10.80;99.90;;;;;;5031978;28;20174;-70
2022/03/27 04:51:57;;;;;;;22.33;16.13;;;10.70;99.90;;;;;;5031648;28;20913;-69
2022/03/27 04:54:23;;;;;;;20.37;16.27;;;10.80;99.90;;;;;;5032379;28;20225;-69
2022/03/27 04:56:48;;;;;;;21.47;16.70;;;10.80;99.90;;;;;;5031604;28;20441;-68
2022/03/27 04:59:14;;;;;;;23.87;17.57;;;10.80;99.90;;;;;;5031300;28;20197;-68
2022/03/27 05:01:41;;;;;;;24.63;17.97;;;10.90;99.90;;;;;;5031908;28;20207;-69
2022/03/27 05:04:07;;;;;;;25.10;17.47;;;10.90;99.90;;;;;;5030654;28;20171;-68
2022/03/27 05:06:33;;;;;;;23.47;18.47;;;10.80;99.90;;;;;;5031737;28;20448;-69
2022/03/27 05:08:58;;;;;;;27.73;18.33;;;10.80;99.90;;;;;;5031450;28;20201;-69
2022/03/27 05:11:28;;;;;;;27.50;18.70;;;10.80;99.90;;;;;;5008799;23;20590;-70
2022/03/27 05:13:54;;;;;;;24.02;18.00;;;10.90;99.90;;;;;;4972933;28;20347;-70
2022/03/27 05:16:20;;;;;;;31.40;19.47;;;10.90;99.90;;;;;;4972937;28;20256;-70
2022/03/27 05:18:46;;;;;;;23.40;17.70;;;10.70;99.90;;;;;;4973073;28;20909;-70
2022/03/27 05:21:11;;;;;;;26.03;20.40;;;10.70;99.90;;;;;;4992291;28;20204;-70
2022/03/27 05:23:37;;;;;;;23.33;18.50;;;10.80;99.90;;;;;;4992590;28;20258;-70
2022/03/27 05:26:03;;;;;;;25.20;17.47;;;10.70;99.90;;;;;;4992423;28;20173;-70
2022/03/27 05:28:28;;;;;;;32.40;18.60;;;10.80;99.90;;;;;;4992438;28;20172;-70
2022/03/27 05:30:56;;;;;;;25.13;19.27;;;10.80;99.90;;;;;;4993039;28;20439;-70
2022/03/27 05:33:22;;;;;;;26.27;18.83;;;10.70;99.90;;;;;;4992429;28;20172;-70
2022/03/27 05:35:48;;;;;;;24.10;17.80;;;10.80;99.90;;;;;;4992336;28;20520;-70
2022/03/27 05:38:13;;;;;;;24.40;18.73;;;10.80;99.90;;;;;;4991789;28;20950;-70
2022/03/27 05:40:40;;;;;;;24.70;18.40;;;10.80;99.90;;;;;;4992897;28;20191;-70
2022/03/27 05:43:06;;;;;;;23.00;18.10;;;10.80;99.90;;;;;;4992393;28;20192;-70
2022/03/27 05:45:32;;;;;;;30.07;18.93;;;10.80;99.90;;;;;;4992324;28;20772;-70
2022/03/27 05:47:57;;;;;;;28.60;18.87;;;10.70;99.90;;;;;;4992605;28;20407;-70
2022/03/27 05:50:23;;;;;;;25.77;18.27;;;10.80;99.90;;;;;;4992055;28;20247;-70
2022/03/27 05:52:51;;;;;;;27.50;19.17;;;10.90;99.90;;;;;;4992923;28;20589;-70
2022/03/27 05:55:17;;;;;;;32.40;21.67;;;10.90;99.90;;;;;;4992037;28;20462;-70
2022/03/27 05:57:43;;;;;;;36.57;22.20;;;10.90;99.90;;;;;;4992161;28;20415;-70
2022/03/27 06:00:12;;;;;;;31.83;22.00;;;10.90;99.90;;;;;;4992097;28;20431;-70
2022/03/27 06:02:38;;;;;;;33.30;21.30;;;11.00;99.90;;;;;;4993957;28;20554;-70
2022/03/27 06:05:04;;;;;;;35.70;22.73;;;11.00;99.90;;;;;;4995954;28;20565;-70
2022/03/27 06:07:30;;;;;;;34.70;24.03;;;11.00;99.90;;;;;;4995350;28;20476;-70
2022/03/27 06:09:55;;;;;;;32.20;22.30;;;11.00;99.90;;;;;;4994880;28;20458;-70
2022/03/27 06:12:21;;;;;;;36.17;22.93;;;11.10;99.90;;;;;;4996388;28;20262;-70
2022/03/27 06:14:48;;;;;;;33.57;22.73;;;11.20;99.90;;;;;;4995360;28;20184;-70
2022/03/27 06:17:13;;;;;;;32.77;23.23;;;11.10;99.90;;;;;;4995228;28;20175;-71
2022/03/27 06:19:39;;;;;;;32.70;22.50;;;11.10;99.90;;;;;;4994783;28;20431;-70
2022/03/27 06:22:04;;;;;;;31.90;21.80;;;11.10;99.90;;;;;;4995284;28;20656;-71
2022/03/27 06:24:30;;;;;;;32.00;21.87;;;11.10;99.90;;;;;;4996002;28;20184;-71
2022/03/27 06:26:55;;;;;;;34.23;21.57;;;11.10;99.90;;;;;;4995282;28;20202;-71
2022/03/27 06:29:21;;;;;;;32.40;24.00;;;11.10;99.90;;;;;;4994849;28;20176;-71
2022/03/27 06:31:51;;;;;;;32.23;22.73;;;11.10;99.90;;;;;;4995205;28;20180;-71
2022/03/27 06:34:18;;;;;;;32.50;22.10;;;11.20;99.90;;;;;;4996167;28;20426;-71
2022/03/27 06:36:44;;;;;;;34.47;24.33;;;11.10;99.90;;;;;;4995942;28;20416;-72
2022/03/27 06:39:10;;;;;;;32.30;23.50;;;11.10;99.90;;;;;;5012171;28;20903;-71
2022/03/27 06:41:36;;;;;;;29.30;22.07;;;11.10;99.90;;;;;;5014338;28;20455;-72
2022/03/27 06:44:01;;;;;;;34.70;22.77;;;11.10;99.90;;;;;;5014399;28;20551;-71
2022/03/27 06:46:27;;;;;;;30.80;23.17;;;11.20;99.90;;;;;;5014467;28;20195;-71
2022/03/27 06:48:53;;;;;;;34.53;22.80;;;11.20;99.90;;;;;;5012628;28;20187;-70
2022/03/27 06:51:19;;;;;;;29.70;22.27;;;11.30;99.90;;;;;;5013879;28;20557;-71
2022/03/27 06:53:45;;;;;;;29.27;22.57;;;11.30;99.90;;;;;;5014262;28;20216;-71
2022/03/27 06:56:11;;;;;;;31.00;22.77;;;11.30;99.90;;;;;;5014489;28;20468;-71
2022/03/27 06:58:36;;;;;;;29.60;21.53;;;11.30;99.90;;;;;;5012568;28;20253;-70
2022/03/27 07:03:46;;;;;;;30.40;22.07;;;11.30;99.90;;;;;;5014254;28;20580;-71
2022/03/27 07:06:14;;;;;;;30.97;23.47;;;11.40;99.90;;;;;;5013941;28;20402;-71
2022/03/27 07:08:40;;;;;;;28.27;21.50;;;11.50;99.90;;;;;;5014284;28;20175;-71
2022/03/27 07:11:05;;;;;;;31.87;22.53;;;11.40;99.90;;;;;;5011474;28;20799;-71
2022/03/27 07:13:31;;;;;;;30.57;22.40;;;11.50;99.90;;;;;;5013849;28;20178;-70
2022/03/27 07:15:57;;;;;;;32.77;21.73;;;11.60;99.90;;;;;;5013761;28;20181;-71
2022/03/27 07:18:23;;;;;;;27.77;21.80;;;11.60;99.90;;;;;;5014031;28;20219;-72
2022/03/27 07:20:49;;;;;;;31.43;22.43;;;11.70;99.90;;;;;;5011826;28;20675;-72
2022/03/27 07:23:19;;;;;;;29.20;22.60;;;11.80;99.90;;;;;;5013348;28;20421;-72
2022/03/27 07:25:47;;;;;;;30.93;22.50;;;11.80;99.90;;;;;;5013743;28;20186;-71
2022/03/27 07:28:15;;;;;;;29.63;22.70;;;11.80;99.90;;;;;;5013636;28;20421;-71
2022/03/27 07:30:42;;;;;;;29.03;20.50;;;11.80;99.90;;;;;;5011548;28;20443;-71
2022/03/27 07:33:08;;;;;;;28.00;21.20;;;11.70;99.90;;;;;;4982421;28;20442;-70
2022/03/27 07:35:34;;;;;;;31.10;23.17;;;11.70;99.90;;;;;;5002698;28;20941;-71
2022/03/27 07:38:01;;;;;;;28.67;21.70;;;11.80;99.90;;;;;;4991931;28;20834;-71
2022/03/27 07:40:30;;;;;;;30.00;21.27;;;11.80;99.90;;;;;;4990796;28;20444;-71
2022/03/27 07:42:57;;;;;;;30.33;21.30;;;11.90;99.90;;;;;;4984109;28;20491;-70
2022/03/27 07:45:25;;;;;;;28.67;24.70;;;11.90;99.90;;;;;;4988284;28;20515;-71
2022/03/27 07:47:52;;;;;;;24.50;19.80;;;12.00;99.90;;;;;;4991539;28;20950;-71
2022/03/27 07:50:20;;;;;;;28.03;19.77;;;12.00;99.90;;;;;;4992296;28;20455;-70
2022/03/27 07:52:45;;;;;;;27.57;22.80;;;12.10;99.90;;;;;;5000275;28;20800;-70
2022/03/27 07:55:13;;;;;;;28.77;20.23;;;12.20;99.90;;;;;;5012056;28;20439;-70
2022/03/27 07:57:39;;;;;;;21.87;17.57;;;12.30;99.90;;;;;;5012312;28;20267;-70
2022/03/27 08:00:08;;;;;;;21.57;17.47;;;12.40;99.90;;;;;;5011178;28;20538;-71
2022/03/27 08:02:34;;;;;;;20.87;17.00;;;12.50;99.90;;;;;;5008877;28;20222;-71
2022/03/27 08:04:59;;;;;;;21.10;17.50;;;12.50;99.90;;;;;;5011943;28;20451;-71
2022/03/27 08:07:25;;;;;;;20.33;17.03;;;12.50;99.90;;;;;;5012263;28;20200;-71
2022/03/27 08:09:50;;;;;;;23.13;17.43;;;12.40;99.90;;;;;;5011475;28;20223;-71
2022/03/27 08:12:17;;;;;;;20.77;16.57;;;12.40;99.90;;;;;;5012446;28;20226;-72
2022/03/27 08:14:43;;;;;;;24.83;17.20;;;12.60;99.90;;;;;;4995741;28;20727;-70
2022/03/27 08:17:10;;;;;;;20.53;16.20;;;12.50;99.90;;;;;;4992425;28;20448;-73
2022/03/27 08:19:35;;;;;;;24.40;18.80;;;12.50;99.90;;;;;;4990481;28;20451;-72
2022/03/27 08:22:01;;;;;;;25.30;18.37;;;12.50;99.90;;;;;;4992436;28;20462;-72
2022/03/27 08:24:28;;;;;;;20.30;16.63;;;12.60;99.90;;;;;;4993714;28;20246;-72
2022/03/27 08:26:56;;;;;;;22.73;18.37;;;12.60;99.90;;;;;;4991933;28;20179;-72
2022/03/27 08:29:32;;;;;;;21.43;18.83;;;12.60;99.90;;;;;;4992238;28;20410;-72
2022/03/27 08:32:00;;;;;;;22.67;18.00;;;12.70;99.90;;;;;;4977317;28;20422;-72
2022/03/27 08:34:28;;;;;;;20.97;18.70;;;12.60;99.90;;;;;;4975718;28;20416;-71
2022/03/27 08:36:55;;;;;;;21.07;16.43;;;12.20;99.90;;;;;;5009334;28;20456;-72
2022/03/27 08:39:21;;;;;;;22.37;18.10;;;12.10;99.90;;;;;;5011274;28;20802;-72
2022/03/27 08:41:48;;;;;;;21.53;18.13;;;12.00;99.90;;;;;;5011875;28;20446;-71
2022/03/27 08:44:18;;;;;;;24.87;18.50;;;12.10;99.90;;;;;;5012470;28;20629;-72
2022/03/27 08:46:45;;;;;;;26.83;18.00;;;12.10;99.90;;;;;;5012073;28;20407;-71
2022/03/27 08:49:37;;;;;;;27.10;19.30;;;12.10;99.90;;;;;;4995265;28;20526;-71
2022/03/27 08:52:35;;;;;;;20.87;16.87;;;12.20;99.90;;;;;;4991227;28;20477;-71
2022/03/27 08:55:17;;;;;;;23.90;17.60;;;12.30;99.90;;;;;;4991834;28;20403;-71
2022/03/27 08:57:46;;;;;;;26.33;21.40;;;12.40;99.90;;;;;;4991023;28;20413;-69
2022/03/27 09:00:13;;;;;;;22.23;19.80;;;12.60;99.90;;;;;;4992628;28;20543;-70
2022/03/27 09:02:40;;;;;;;24.80;18.80;;;12.70;99.90;;;;;;4991470;28;20447;-70
2022/03/27 09:05:06;;;;;;;24.13;20.40;;;12.90;99.90;;;;;;4990946;28;21175;-71
2022/03/27 09:07:32;;;;;;;22.20;18.77;;;13.10;99.90;;;;;;4992041;28;20184;-72
2022/03/27 09:10:00;;;;;;;24.00;19.23;;;12.90;99.90;;;;;;4992348;28;20207;-71
2022/03/27 09:12:26;;;;;;;24.03;18.50;;;12.80;99.90;;;;;;4991681;28;20177;-71
2022/03/27 09:14:52;;;;;;;22.83;18.80;;;12.60;99.90;;;;;;4991318;28;20419;-70
2022/03/27 09:17:17;;;;;;;23.33;18.03;;;12.50;99.90;;;;;;4991688;28;20886;-70
2022/03/27 09:19:50;;;;;;;25.50;19.47;;;12.30;99.90;;;;;;4992284;28;20231;-71
2022/03/27 09:22:28;;;;;;;23.53;18.87;;;12.50;99.90;;;;;;4983571;28;20211;-72
2022/03/27 09:25:02;;;;;;;19.40;16.03;;;12.70;99.90;;;;;;4972162;28;20404;-71
2022/03/27 09:27:30;;;;;;;22.83;17.80;;;12.80;99.90;;;;;;4972098;28;20463;-72
2022/03/27 09:30:06;;;;;;;23.20;17.50;;;13.00;99.90;;;;;;4973294;28;20428;-72
2022/03/27 09:32:43;;;;;;;25.27;18.90;;;13.20;99.90;;;;;;5012738;28;20410;-71
2022/03/27 09:35:10;;;;;;;23.43;17.50;;;13.30;99.90;;;;;;5011909;28;20418;-71
2022/03/27 09:37:40;;;;;;;21.13;16.47;;;13.50;99.90;;;;;;5013562;28;20418;-71
2022/03/27 09:40:08;;;;;;;29.50;19.03;;;13.60;99.90;;;;;;5015220;28;20496;-71
2022/03/27 09:42:36;;;;;;;23.03;17.87;;;13.70;99.90;;;;;;5013807;28;20466;-71
2022/03/27 09:45:11;;;;;;;22.23;16.73;;;13.60;99.90;;;;;;5015575;28;20410;-70
2022/03/27 09:47:38;;;;;;;22.10;18.17;;;13.70;99.90;;;;;;5015773;28;20408;-70
2022/03/27 09:50:04;;;;;;;23.67;18.90;;;13.70;99.90;;;;;;5015297;28;20430;-70
2022/03/27 09:52:30;;;;;;;22.27;18.40;;;13.60;99.90;;;;;;5013720;28;20433;-71
2022/03/27 09:54:59;;;;;;;22.03;19.00;;;13.70;99.90;;;;;;5015372;28;20423;-71
2022/03/27 09:57:39;;;;;;;25.13;19.40;;;13.80;99.90;;;;;;5015733;28;20513;-70
2022/03/27 10:00:16;;;;;;;21.60;17.87;;;14.00;99.90;;;;;;5014860;28;20996;-70
2022/03/27 10:02:43;;;;;;;24.65;19.60;;;14.00;99.90;;;;;;5013290;28;20517;-70
2022/03/27 10:05:16;;;;;;;21.53;17.80;;;13.90;99.90;;;;;;5015410;28;20975;-70
2022/03/27 10:07:53;;;;;;;25.30;19.90;;;13.90;99.90;;;;;;5015547;28;20395;-70
2022/03/27 10:10:22;;;;;;;27.80;20.37;;;13.90;99.90;;;;;;5013451;28;20456;-70
2022/03/27 10:12:52;;;;;;;30.53;21.00;;;13.80;99.90;;;;;;5013260;28;20426;-70
2022/03/27 10:15:26;;;;;;;27.20;20.67;;;13.90;99.90;;;;;;5015232;28;20406;-70
2022/03/27 10:18:03;;;;;;;23.40;18.60;;;13.80;99.90;;;;;;5016242;28;20460;-70
2022/03/27 10:20:33;;;;;;;23.47;17.60;;;13.70;99.90;;;;;;5015203;28;20487;-71
2022/03/27 10:23:07;;;;;;;24.93;18.83;;;13.70;99.90;;;;;;5000947;28;20466;-70
2022/03/27 10:25:50;;;;;;;24.07;18.43;;;14.00;99.90;;;;;;4975831;28;20415;-71
2022/03/27 10:28:18;;;;;;;22.63;18.47;;;14.20;99.90;;;;;;4975868;28;20889;-71
2022/03/27 10:30:44;;;;;;;22.40;18.20;;;14.20;99.90;;;;;;4975010;28;20799;-71
2022/03/27 10:33:11;;;;;;;17.73;15.43;;;14.40;99.90;;;;;;4975656;28;20416;-71
2022/03/27 10:35:55;;;;;;;21.83;16.97;;;14.50;99.90;;;;;;5004912;28;20919;-71
2022/03/27 10:39:04;;;;;;;17.73;14.33;;;14.60;99.90;;;;;;5000072;28;20497;-71
2022/03/27 10:41:35;;;;;;;18.43;15.40;;;14.60;99.90;;;;;;4996736;28;20498;-71
2022/03/27 10:44:00;;;;;;;18.93;15.40;;;14.60;99.90;;;;;;4995131;28;20402;-70
2022/03/27 10:46:28;;;;;;;19.73;15.30;;;14.50;99.90;;;;;;4994885;28;20821;-71
2022/03/27 10:49:10;;;;;;;18.43;16.30;;;14.50;99.90;;;;;;4995556;28;20632;-71
2022/03/27 10:51:39;;;;;;;18.67;15.23;;;14.40;99.90;;;;;;4996836;28;20858;-71
2022/03/27 10:54:12;;;;;;;21.80;14.17;;;14.40;99.90;;;;;;4998312;28;20423;-71
2022/03/27 10:56:43;;;;;;;16.10;14.13;;;14.30;99.90;;;;;;4996985;28;20442;-71
2022/03/27 10:59:13;;;;;;;15.23;13.63;;;14.40;99.90;;;;;;4997106;28;20807;-71
2022/03/27 11:01:41;;;;;;;16.07;14.27;;;14.50;99.90;;;;;;4994986;28;20462;-71
2022/03/27 11:04:16;;;;;;;18.90;14.80;;;14.50;99.90;;;;;;4992422;28;20489;-71
2022/03/27 11:06:47;;;;;;;18.60;15.90;;;14.30;99.90;;;;;;4979533;28;20774;-70
2022/03/27 11:09:36;;;;;;;17.00;15.10;;;14.20;99.90;;;;;;4995222;28;20426;-71
2022/03/27 11:12:04;;;;;;;17.73;14.73;;;14.30;99.90;;;;;;5032059;23;20463;-70
2022/03/27 11:14:56;;;;;;;17.20;14.47;;;14.40;99.90;;;;;;5034900;28;20179;-69
2022/03/27 11:17:38;;;;;;;15.83;14.13;;;14.40;99.90;;;;;;5034440;28;20406;-69
2022/03/27 11:20:24;;;;;;;17.13;14.20;;;14.50;99.90;;;;;;5031287;28;20425;-70
2022/03/27 11:22:54;;;;;;;16.63;14.70;;;14.70;99.90;;;;;;5014051;28;20474;-68
2022/03/27 11:25:37;;;;;;;18.60;15.40;;;14.50;99.90;;;;;;5015128;28;20501;-69
2022/03/27 11:28:03;;;;;;;17.53;15.37;;;14.70;99.90;;;;;;5014994;28;20410;-69
2022/03/27 11:30:30;;;;;;;19.80;14.83;;;14.80;99.90;;;;;;5014346;28;20423;-69
2022/03/27 11:33:16;;;;;;;18.87;14.20;;;14.80;99.90;;;;;;5014542;28;20273;-69
2022/03/27 11:36:03;;;;;;;19.27;14.90;;;14.70;99.90;;;;;;5014001;28;20418;-69
2022/03/27 11:38:50;;;;;;;17.10;14.97;;;14.50;99.90;;;;;;5014765;28;20552;-71
2022/03/27 11:41:25;;;;;;;17.60;14.30;;;14.60;99.90;;;;;;4993181;28;20575;-69
2022/03/27 11:43:52;;;;;;;19.10;14.27;;;14.70;99.90;;;;;;5028843;28;20487;-69
2022/03/27 11:46:28;;;;;;;16.83;14.40;;;14.80;99.90;;;;;;5016554;28;20422;-68
2022/03/27 11:48:55;;;;;;;16.70;13.73;;;14.70;99.90;;;;;;5012793;28;20457;-68
2022/03/27 11:51:24;;;;;;;15.60;13.07;;;14.60;99.90;;;;;;5013248;28;20529;-69
2022/03/27 11:53:50;;;;;;;16.60;12.50;;;14.60;99.90;;;;;;5013970;28;20457;-68
2022/03/27 11:56:16;;;;;;;14.63;12.70;;;14.80;99.90;;;;;;5014143;28;20438;-68
2022/03/27 11:58:42;;;;;;;14.63;12.50;;;14.80;99.90;;;;;;5013744;28;20421;-69
2022/03/27 12:01:09;;;;;;;14.70;12.17;;;14.80;99.90;;;;;;5012103;28;20290;-69
2022/03/27 12:03:36;;;;;;;14.40;12.45;;;14.80;99.90;;;;;;5013839;28;20421;-69
2022/03/27 12:06:05;;;;;;;14.80;12.70;;;15.00;99.90;;;;;;5014388;28;20176;-69
2022/03/27 12:08:32;;;;;;;14.63;12.20;;;15.10;99.90;;;;;;5014165;28;20421;-69
2022/03/27 12:11:04;;;;;;;14.20;12.70;;;15.20;99.90;;;;;;5013521;28;20447;-69
2022/03/27 12:13:38;;;;;;;14.77;12.40;;;15.30;99.90;;;;;;5013433;28;20406;-69
2022/03/27 12:16:04;;;;;;;13.17;10.90;;;15.30;99.90;;;;;;5014200;28;20410;-70
2022/03/27 12:18:40;;;;;;;13.20;11.13;;;15.40;99.90;;;;;;5012829;28;20923;-70
2022/03/27 12:21:09;;;;;;;11.93;10.73;;;15.40;99.90;;;;;;5013675;28;20438;-70
2022/03/27 12:23:43;;;;;;;12.30;10.33;;;15.30;99.90;;;;;;5021685;28;20410;-69
2022/03/27 12:29:40;;;;;;;11.80;10.00;;;15.30;99.90;;;;;;5012726;28;20452;-68
2022/03/27 12:32:05;;;;;;;13.30;11.80;;;15.30;99.90;;;;;;5014328;28;20833;-69
2022/03/27 12:34:31;;;;;;;16.13;10.50;;;15.30;99.90;;;;;;5012925;28;20479;-69
2022/03/27 12:37:09;;;;;;;15.00;12.07;;;15.40;99.90;;;;;;5014312;28;20977;-69
2022/03/27 12:39:55;;;;;;;12.43;11.13;;;15.40;99.90;;;;;;5012180;28;20422;-69
2022/03/27 12:42:30;;;;;;;13.83;11.30;;;15.40;99.90;;;;;;4991644;28;20471;-69
2022/03/27 12:45:07;;;;;;;13.63;11.97;;;15.40;99.90;;;;;;5013691;28;20473;-68